Time;durP1;ratioP1;P1;durP2;ratioP2;P2;SDS_P1;SDS_P2;PMS_P1;PMS_P2;Temp;Humidity;BMP_temperature;BMP_pressure;BME280_temperature;BME280_humidity;BME280_pressure;Samples;Min_cycle;Max_cycle;Signal;HPM_P1;HPM_P2
2021/03/03 00:02:08;;;;;;;39.33;23.50;;;;;;;2.84;100.00;102680.75;5156756;27;20451;-78
2021/03/03 00:04:34;;;;;;;43.43;23.33;;;;;;;2.74;100.00;102682.53;5156656;27;20375;-78
2021/03/03 00:06:59;;;;;;;41.53;24.83;;;;;;;2.68;100.00;102683.41;5157031;27;20571;-77
2021/03/03 00:09:25;;;;;;;34.50;20.13;;;;;;;2.73;100.00;102680.81;5139679;27;20286;-78
2021/03/03 00:11:50;;;;;;;45.37;27.83;;;;;;;2.72;100.00;102676.44;5135843;27;20582;-79
2021/03/03 00:14:16;;;;;;;29.03;14.93;;;;;;;2.75;100.00;102676.47;5135962;27;20205;-78
2021/03/03 00:16:41;;;;;;;36.53;22.63;;;;;;;2.79;100.00;102681.63;5141307;27;20153;-79
2021/03/03 00:19:07;;;;;;;46.90;24.03;;;;;;;2.78;100.00;102679.03;5155847;27;20165;-76
2021/03/03 00:21:33;;;;;;;39.23;17.33;;;;;;;2.81;100.00;102676.44;5156670;27;20161;-75
2021/03/03 00:23:58;;;;;;;25.17;15.50;;;;;;;2.86;100.00;102677.28;5155523;27;20157;-77
2021/03/03 00:26:24;;;;;;;35.83;22.17;;;;;;;2.93;100.00;102671.19;5156679;27;20150;-76
2021/03/03 00:28:49;;;;;;;26.30;15.87;;;;;;;3.01;100.00;102672.03;5155731;27;20626;-78
2021/03/03 00:31:15;;;;;;;26.60;16.17;;;;;;;3.13;100.00;102678.06;5156289;27;20185;-79
2021/03/03 00:33:40;;;;;;;32.80;19.73;;;;;;;3.19;100.00;102668.50;5156442;27;20237;-78
2021/03/03 00:36:06;;;;;;;21.50;12.20;;;;;;;3.23;100.00;102658.94;5155857;27;20150;-77
2021/03/03 00:38:32;;;;;;;28.77;18.20;;;;;;;3.21;100.00;102661.56;5155123;27;20162;-79
2021/03/03 00:40:57;;;;;;;27.13;14.77;;;;;;;3.26;100.00;102669.34;5156382;27;20598;-78
2021/03/03 00:43:23;;;;;;;26.37;15.13;;;;;;;3.37;100.00;102674.47;5156037;27;20395;-78
2021/03/03 00:45:48;;;;;;;31.80;21.77;;;;;;;3.30;100.00;102671.03;5156312;27;20184;-77
2021/03/03 00:48:14;;;;;;;34.87;22.30;;;;;;;3.31;100.00;102668.41;5154944;27;20671;-78
2021/03/03 00:50:39;;;;;;;37.70;22.00;;;;;;;3.30;100.00;102664.09;5155975;27;20200;-77
2021/03/03 00:53:12;;;;;;;28.87;20.30;;;;;;;3.28;100.00;102660.66;5155847;27;20632;-75
2021/03/03 00:55:38;;;;;;;35.87;22.40;;;;;;;3.13;100.00;102662.47;5155411;27;20157;-74
2021/03/03 00:58:04;;;;;;;28.17;16.53;;;;;;;3.27;100.00;102656.34;5150946;27;20489;-74
2021/03/03 01:00:30;;;;;;;27.03;16.73;;;;;;;3.44;100.00;102660.56;5154730;27;20165;-77
2021/03/03 01:02:56;;;;;;;29.40;18.47;;;;;;;3.62;100.00;102657.84;5155124;27;20173;-75
2021/03/03 01:05:21;;;;;;;24.17;13.80;;;;;;;3.66;100.00;102651.75;5154820;27;20169;-78
2021/03/03 01:07:47;;;;;;;29.90;19.20;;;;;;;3.70;100.00;102642.19;5155844;27;20398;-76
2021/03/03 01:10:13;;;;;;;33.00;19.90;;;;;;;3.53;100.00;102644.91;5154159;27;20775;-77
2021/03/03 01:12:38;;;;;;;33.53;21.60;;;;;;;3.43;100.00;102643.25;5153601;27;20200;-77
2021/03/03 01:15:05;;;;;;;29.80;18.60;;;;;;;3.28;100.00;102642.47;5155219;27;20181;-77
2021/03/03 01:17:31;;;;;;;26.43;15.60;;;;;;;3.44;100.00;102645.84;5155573;27;20158;-77
2021/03/03 01:19:56;;;;;;;34.60;21.27;;;;;;;3.47;100.00;102635.41;5137057;27;20775;-78
2021/03/03 01:22:22;;;;;;;23.90;14.97;;;;;;;3.54;100.00;102638.84;5134290;27;20466;-76
2021/03/03 01:24:47;;;;;;;19.17;10.77;;;;;;;3.57;100.00;102639.69;5146385;27;20305;-77
2021/03/03 01:27:13;;;;;;;22.93;15.17;;;;;;;3.59;100.00;102648.34;5155096;27;20244;-78
2021/03/03 01:29:38;;;;;;;31.83;19.33;;;;;;;3.52;100.00;102644.06;5155173;27;20158;-79
2021/03/03 01:32:04;;;;;;;32.20;18.37;;;;;;;3.48;100.00;102646.69;5146722;27;20285;-78
2021/03/03 01:34:29;;;;;;;33.50;19.10;;;;;;;3.40;100.00;102648.44;5134557;27;20170;-76
2021/03/03 01:36:55;;;;;;;16.77;10.40;;;;;;;3.36;100.00;102655.41;5134231;27;20690;-76
2021/03/03 01:39:20;;;;;;;31.73;21.60;;;;;;;3.32;100.00;102651.09;5134197;27;20253;-76
2021/03/03 01:41:46;;;;;;;34.63;19.20;;;;;;;3.30;100.00;102650.25;5134317;27;20209;-79
2021/03/03 01:44:11;;;;;;;30.97;19.80;;;;;;;3.29;100.00;102648.53;5146000;27;20266;-77
2021/03/03 01:46:36;;;;;;;34.63;18.70;;;;;;;3.30;100.00;102643.31;5135160;27;20601;-77
2021/03/03 01:49:02;;;;;;;27.47;15.83;;;;;;;3.33;100.00;102653.72;5133866;27;20262;-77
2021/03/03 01:51:28;;;;;;;33.50;21.07;;;;;;;3.35;100.00;102661.50;5136107;27;20197;-77
2021/03/03 01:53:54;;;;;;;37.00;22.17;;;;;;;3.26;100.00;102665.00;5141702;27;20170;-79
2021/03/03 01:56:19;;;;;;;37.00;20.93;;;;;;;3.32;100.00;102661.47;5154699;27;20399;-77
2021/03/03 01:58:45;;;;;;;31.37;19.87;;;;;;;3.45;100.00;102660.56;5155062;27;20192;-77
2021/03/03 02:01:11;;;;;;;25.53;16.83;;;;;;;3.51;100.00;102657.91;5155046;27;20170;-77
2021/03/03 02:03:39;;;;;;;18.80;11.97;;;;;;;3.57;100.00;102659.63;5143714;27;20524;-76
2021/03/03 02:06:29;;;;;;;31.37;19.00;;;;;;;3.49;100.00;102661.41;5134601;27;20681;-77
2021/03/03 02:09:27;;;;;;;26.47;15.93;;;;;;;3.52;100.00;102662.25;5133596;27;20389;-77
2021/03/03 02:12:02;;;;;;;34.10;19.80;;;;;;;3.58;100.00;102662.22;5133714;27;20500;-77
2021/03/03 02:14:29;;;;;;;31.40;19.40;;;;;;;3.66;100.00;102662.16;5152293;27;20414;-77
2021/03/03 02:16:55;;;;;;;24.60;15.43;;;;;;;3.72;100.00;102663.84;5153475;27;20406;-77
2021/03/03 02:19:35;;;;;;;36.87;14.50;;;;;;;3.80;100.00;102664.66;5154201;27;20392;-76
2021/03/03 02:22:26;;;;;;;31.30;18.30;;;;;;;3.77;100.00;102664.66;5154433;27;20401;-76
2021/03/03 02:25:00;;;;;;;31.27;18.63;;;;;;;3.83;100.00;102672.41;5133286;27;20448;-77
2021/03/03 02:27:27;;;;;;;34.70;18.57;;;;;;;3.77;100.00;102672.47;5138846;27;20418;-77
2021/03/03 02:29:53;;;;;;;23.07;14.63;;;;;;;3.78;100.00;102669.88;5153777;27;20789;-77
2021/03/03 02:32:19;;;;;;;27.93;15.67;;;;;;;3.71;100.00;102669.94;5153552;27;20499;-76
2021/03/03 02:34:45;;;;;;;19.07;10.97;;;;;;;3.77;100.00;102662.94;5150006;27;20411;-76
2021/03/03 02:37:13;;;;;;;39.73;24.10;;;;;;;3.74;100.00;102667.31;5143285;27;20400;-78
2021/03/03 02:39:39;;;;;;;29.47;14.83;;;;;;;3.72;100.00;102679.44;5133144;27;20395;-77
2021/03/03 02:42:06;;;;;;;35.90;17.93;;;;;;;3.75;100.00;102677.69;5133211;27;20392;-77
2021/03/03 02:44:32;;;;;;;17.83;11.17;;;;;;;3.76;100.00;102675.94;5133530;27;20812;-77
2021/03/03 02:46:58;;;;;;;32.73;20.90;;;;;;;3.71;100.00;102693.31;5154031;27;20419;-78
2021/03/03 02:49:25;;;;;;;20.73;13.87;;;;;;;3.69;100.00;102693.31;5152506;27;20418;-79
2021/03/03 02:51:50;;;;;;;35.77;21.17;;;;;;;3.68;100.00;102693.31;5153708;27;20588;-76
2021/03/03 02:54:16;;;;;;;24.73;14.93;;;;;;;3.75;100.00;102685.47;5153624;27;20947;-75
2021/03/03 02:56:43;;;;;;;21.73;10.57;;;;;;;3.84;100.00;102685.41;5152827;27;20534;-78
2021/03/03 02:59:39;;;;;;;29.23;18.90;;;;;;;3.80;100.00;102667.25;5153512;27;20434;-76
2021/03/03 03:02:07;;;;;;;18.40;10.70;;;;;;;3.80;100.00;102670.72;5145246;27;20419;-77
2021/03/03 03:04:39;;;;;;;23.90;14.27;;;;;;;3.82;100.00;102675.91;5152416;27;20387;-76
2021/03/03 03:07:12;;;;;;;19.80;12.77;;;;;;;3.84;100.00;102669.81;5153181;27;20923;-79
2021/03/03 03:09:39;;;;;;;24.53;14.63;;;;;;;3.82;100.00;102675.91;5153396;27;20383;-79
2021/03/03 03:12:07;;;;;;;36.30;19.20;;;;;;;3.79;100.00;102678.53;5153471;27;20477;-79
2021/03/03 03:14:33;;;;;;;31.13;21.93;;;;;;;3.75;100.00;102676.81;5152712;27;20391;-77
2021/03/03 03:17:00;;;;;;;31.10;18.03;;;;;;;3.70;100.00;102682.03;5132117;27;20400;-79
2021/03/03 03:19:33;;;;;;;24.90;16.17;;;;;;;3.74;100.00;102694.16;5132299;27;20507;-75
2021/03/03 03:22:00;;;;;;;31.40;19.63;;;;;;;3.67;100.00;102692.47;5132643;27;20451;-75
2021/03/03 03:24:26;;;;;;;23.60;15.50;;;;;;;3.70;100.00;102692.44;5113791;28;20474;-79
2021/03/03 03:26:53;;;;;;;34.60;20.97;;;;;;;3.74;100.00;102704.56;5151362;27;20410;-80
2021/03/03 03:29:18;;;;;;;28.83;18.23;;;;;;;3.76;100.00;102699.34;5152773;27;20444;-78
2021/03/03 03:31:45;;;;;;;29.87;19.10;;;;;;;3.74;100.00;102708.88;5153176;27;20446;-78
2021/03/03 03:34:12;;;;;;;32.77;18.30;;;;;;;3.70;100.00;102712.38;5152619;27;20165;-76
2021/03/03 03:36:39;;;;;;;31.50;18.03;;;;;;;3.75;100.00;102713.22;5152027;27;20442;-76
2021/03/03 03:39:07;;;;;;;29.97;18.10;;;;;;;3.74;100.00;102717.53;5153132;27;20395;-76
2021/03/03 03:41:34;;;;;;;32.13;18.43;;;;;;;3.74;100.00;102725.34;5153086;27;20415;-76
2021/03/03 03:44:00;;;;;;;29.20;18.50;;;;;;;3.83;100.00;102734.81;5153070;27;20430;-76
2021/03/03 03:46:27;;;;;;;29.00;17.60;;;;;;;3.86;100.00;102729.63;5151916;27;20423;-78
2021/03/03 03:48:52;;;;;;;35.27;18.07;;;;;;;3.89;100.00;102729.59;5152445;27;20395;-77
2021/03/03 03:51:18;;;;;;;32.80;19.80;;;;;;;3.95;100.00;102734.75;5153227;27;20986;-77
2021/03/03 03:53:44;;;;;;;28.83;17.73;;;;;;;3.82;100.00;102733.09;5153051;27;20158;-78
2021/03/03 03:56:11;;;;;;;30.23;19.83;;;;;;;3.76;100.00;102735.72;5140156;27;20443;-79
2021/03/03 03:58:36;;;;;;;29.63;15.63;;;;;;;3.76;100.00;102733.13;5113803;28;20338;-78
2021/03/03 04:01:03;;;;;;;28.07;19.33;;;;;;;3.68;100.00;102745.31;5141761;27;20932;-79
2021/03/03 04:03:33;;;;;;;25.83;16.77;;;;;;;3.83;100.00;102747.81;5154407;27;20219;-78
2021/03/03 04:06:03;;;;;;;29.03;16.00;;;;;;;3.86;100.00;102742.63;5152656;27;20474;-77
2021/03/03 04:08:29;;;;;;;29.47;18.00;;;;;;;3.80;100.00;102753.03;5152028;27;20407;-77
2021/03/03 04:10:55;;;;;;;26.77;17.20;;;;;;;3.73;100.00;102759.16;5152981;27;20817;-77
2021/03/03 04:13:21;;;;;;;25.27;14.53;;;;;;;3.80;100.00;102758.25;5152345;27;20471;-76
2021/03/03 04:15:46;;;;;;;26.90;16.30;;;;;;;3.80;100.00;102758.25;5152528;27;20411;-77
2021/03/03 04:18:13;;;;;;;30.83;17.80;;;;;;;3.71;100.00;102769.56;5152445;27;20162;-79
2021/03/03 04:20:41;;;;;;;18.77;12.30;;;;;;;4.00;100.00;102764.16;5152872;27;20645;-74
2021/03/03 04:23:10;;;;;;;18.23;12.03;;;;;;;4.52;100.00;102761.16;5132863;27;20430;-77
2021/03/03 04:25:36;;;;;;;22.10;11.67;;;;;;;4.79;100.00;102760.03;5150938;27;20461;-78
2021/03/03 04:28:06;;;;;;;25.00;12.50;;;;;;;4.84;100.00;102762.63;5152333;27;20813;-80
2021/03/03 04:30:33;;;;;;;29.67;14.33;;;;;;;4.67;100.00;102765.34;5152783;27;20391;-78
2021/03/03 04:32:58;;;;;;;23.77;13.37;;;;;;;4.58;100.00;102766.31;5152664;27;20905;-79
2021/03/03 04:35:24;;;;;;;28.43;14.30;;;;;;;4.59;100.00;102767.19;5153130;27;20391;-80
2021/03/03 04:37:50;;;;;;;25.77;14.43;;;;;;;4.55;100.00;102776.75;5139021;27;20253;-80
2021/03/03 04:40:16;;;;;;;15.83;7.83;;;;;;;4.68;100.00;102782.69;5133299;27;20511;-79
2021/03/03 04:42:42;;;;;;;23.50;14.00;;;;;;;4.86;100.00;102784.28;5135915;27;20737;-75
2021/03/03 04:45:09;;;;;;;22.60;13.83;;;;;;;4.93;100.00;102781.59;5135861;27;20599;-76
2021/03/03 04:47:35;;;;;;;27.77;15.93;;;;;;;4.85;100.00;102773.00;5117212;27;20171;-79
2021/03/03 04:50:01;;;;;;;27.57;14.77;;;;;;;4.71;100.00;102782.69;5135485;27;20461;-79
2021/03/03 04:52:26;;;;;;;27.30;14.30;;;;;;;4.69;100.00;102792.25;5135893;27;20466;-77
2021/03/03 04:54:52;;;;;;;24.63;14.00;;;;;;;4.70;100.00;102789.63;5135448;27;20399;-80
2021/03/03 04:57:17;;;;;;;26.50;16.20;;;;;;;4.64;100.00;102804.44;5135556;27;20186;-77
2021/03/03 04:59:43;;;;;;;21.40;12.43;;;;;;;4.68;100.00;102798.31;5145333;27;20177;-77
2021/03/03 05:02:08;;;;;;;33.07;14.90;;;;;;;4.81;100.00;102799.09;5136962;27;20166;-79
2021/03/03 05:04:34;;;;;;;27.70;14.30;;;;;;;4.84;100.00;102794.72;5135009;27;20171;-79
2021/03/03 05:06:59;;;;;;;26.43;15.00;;;;;;;4.88;100.00;102798.16;5135242;27;20177;-78
2021/03/03 05:09:25;;;;;;;24.47;14.67;;;;;;;4.91;100.00;102809.41;5135400;27;20172;-78
2021/03/03 05:11:50;;;;;;;26.30;13.20;;;;;;;4.93;100.00;102814.59;5135071;27;20229;-78
2021/03/03 05:14:16;;;;;;;29.17;13.47;;;;;;;4.91;100.00;102818.94;5149911;27;20185;-78
2021/03/03 05:16:41;;;;;;;25.03;14.80;;;;;;;4.93;100.00;102819.81;5155932;27;20164;-77
2021/03/03 05:19:08;;;;;;;24.23;14.47;;;;;;;4.93;100.00;102825.88;5141960;27;20549;-78
2021/03/03 05:21:33;;;;;;;34.73;14.90;;;;;;;4.95;100.00;102826.72;5116778;27;20239;-75
2021/03/03 05:23:58;;;;;;;28.23;15.77;;;;;;;4.90;100.00;102833.72;5134786;27;20784;-77
2021/03/03 05:26:24;;;;;;;30.53;15.47;;;;;;;4.86;100.00;102841.56;5150569;27;20161;-78
2021/03/03 05:28:50;;;;;;;26.00;14.57;;;;;;;4.81;100.00;102844.22;5155158;27;20631;-76
2021/03/03 05:31:15;;;;;;;32.23;15.20;;;;;;;4.75;100.00;102846.84;5155140;27;20197;-79
2021/03/03 05:33:43;;;;;;;31.83;15.60;;;;;;;4.92;100.00;102850.22;5146185;27;20215;-79
2021/03/03 05:36:09;;;;;;;30.43;17.90;;;;;;;4.94;100.00;102839.75;5134475;27;20150;-79
2021/03/03 05:38:40;;;;;;;41.97;21.33;;;;;;;4.80;100.00;102846.84;5134416;27;20393;-79
2021/03/03 05:41:06;;;;;;;33.20;17.13;;;;;;;4.78;100.00;102838.19;5142190;27;20433;-81
2021/03/03 05:43:33;;;;;;;29.80;16.80;;;;;;;4.83;100.00;102838.97;5153980;27;20490;-79
2021/03/03 05:46:00;;;;;;;33.17;17.53;;;;;;;4.86;100.00;102846.78;5143423;27;20420;-79
2021/03/03 05:48:31;;;;;;;31.93;17.00;;;;;;;4.96;100.00;102845.81;5134654;27;20818;-79
2021/03/03 05:51:03;;;;;;;37.80;17.37;;;;;;;4.97;100.00;102855.34;5133865;27;20522;-77
2021/03/03 05:53:29;;;;;;;30.40;15.90;;;;;;;5.19;100.00;102856.00;5132857;27;20923;-78
2021/03/03 05:56:00;;;;;;;29.93;17.23;;;;;;;5.18;100.00;102855.16;5154971;27;20383;-76
2021/03/03 05:58:31;;;;;;;27.40;13.90;;;;;;;5.36;100.00;102861.03;5154936;27;20769;-79
2021/03/03 06:00:58;;;;;;;29.80;16.40;;;;;;;5.35;100.00;102862.78;5149093;27;20553;-77
2021/03/03 06:03:24;;;;;;;39.00;18.87;;;;;;;5.33;100.00;102869.75;5124482;27;20418;-77
2021/03/03 06:05:51;;;;;;;35.70;20.33;;;;;;;5.46;100.00;102873.13;5122508;27;20474;-77
2021/03/03 06:08:18;;;;;;;41.43;22.93;;;;;;;5.53;100.00;102874.78;5133745;27;20388;-78
2021/03/03 06:10:44;;;;;;;39.67;22.17;;;;;;;5.63;100.00;102883.34;5135014;27;20901;-76
2021/03/03 06:13:11;;;;;;;40.67;22.67;;;;;;;5.58;100.00;102884.25;5165440;27;20469;-78
2021/03/03 06:15:37;;;;;;;30.67;17.93;;;;;;;5.61;100.00;102872.94;5155914;27;20430;-78
2021/03/03 06:18:08;;;;;;;33.13;19.50;;;;;;;5.64;100.00;102875.50;5133288;27;20496;-78
2021/03/03 06:20:37;;;;;;;26.30;15.83;;;;;;;5.67;100.00;102879.81;5153908;27;20408;-78
2021/03/03 06:23:23;;;;;;;36.37;21.00;;;;;;;5.76;100.00;102879.72;5150919;27;20402;-79
2021/03/03 06:25:55;;;;;;;31.43;19.07;;;;;;;5.76;100.00;102877.97;5148053;27;20868;-77
2021/03/03 06:28:50;;;;;;;32.03;17.87;;;;;;;5.81;100.00;102883.13;5143013;27;20443;-75
2021/03/03 06:31:30;;;;;;;26.13;13.37;;;;;;;5.82;100.00;102896.16;5123940;27;20460;-76
2021/03/03 06:34:11;;;;;;;32.57;20.13;;;;;;;5.90;100.00;102897.81;5133156;27;20395;-77
2021/03/03 06:36:37;;;;;;;29.70;16.50;;;;;;;5.96;100.00;102895.13;5147891;27;20415;-76
2021/03/03 06:39:22;;;;;;;23.87;14.97;;;;;;;6.05;100.00;102889.84;5140481;27;20418;-80
2021/03/03 06:41:50;;;;;;;25.80;13.50;;;;;;;6.15;100.00;102894.03;5153385;27;20411;-77
2021/03/03 06:44:15;;;;;;;19.30;13.17;;;;;;;6.22;100.00;102898.28;5153983;27;20399;-79
2021/03/03 06:46:41;;;;;;;20.67;12.03;;;;;;;6.24;100.00;102904.34;5153370;27;20433;-77
2021/03/03 06:49:21;;;;;;;20.67;12.20;;;;;;;6.26;100.00;102902.56;5148719;27;20169;-79
2021/03/03 06:51:47;;;;;;;29.03;16.83;;;;;;;6.28;100.00;102903.44;5151710;27;20257;-78
2021/03/03 06:54:21;;;;;;;19.83;12.37;;;;;;;6.33;100.00;102901.59;5153684;27;21166;-77
2021/03/03 06:56:49;;;;;;;21.93;12.90;;;;;;;6.40;100.00;102902.38;5152727;27;20880;-75
2021/03/03 06:59:18;;;;;;;26.50;16.60;;;;;;;6.46;100.00;102904.03;5152607;27;20460;-76
2021/03/03 07:01:45;;;;;;;27.37;15.17;;;;;;;6.51;100.00;102900.50;5152850;27;20467;-76
2021/03/03 07:04:41;;;;;;;23.97;14.03;;;;;;;6.55;100.00;102899.53;5153143;27;20442;-77
2021/03/03 07:07:19;;;;;;;36.40;15.93;;;;;;;6.67;100.00;102893.28;5135768;27;20424;-76
2021/03/03 07:09:59;;;;;;;27.90;15.40;;;;;;;6.78;100.00;102890.47;5132821;27;20412;-73
2021/03/03 07:12:30;;;;;;;26.43;13.90;;;;;;;6.96;100.00;102895.41;5132238;27;20983;-74
2021/03/03 07:14:55;;;;;;;24.87;11.63;;;;;;;7.03;100.00;102901.38;5147693;27;20395;-75
2021/03/03 07:17:22;;;;;;;27.30;14.83;;;;;;;7.02;100.00;102905.75;5152211;27;20406;-76
2021/03/03 07:19:47;;;;;;;31.90;17.60;;;;;;;7.12;100.00;102898.63;5141010;27;20193;-79
2021/03/03 07:22:26;;;;;;;40.83;19.90;;;;;;;7.23;100.00;102900.16;5152759;27;20442;-77
2021/03/03 07:25:12;;;;;;;26.23;12.73;;;;;;;7.32;100.00;102896.50;5152422;27;20201;-79
2021/03/03 07:27:40;;;;;;;21.43;13.30;;;;;;;7.47;100.00;102882.28;5141431;27;20407;-78
2021/03/03 07:30:09;;;;;;;30.97;16.07;;;;;;;7.59;100.00;102889.03;5135943;27;20924;-79
2021/03/03 07:32:35;;;;;;;28.67;16.27;;;;;;;7.74;100.00;102880.88;5147044;27;21011;-79
2021/03/03 07:35:02;;;;;;;30.63;16.90;;;;;;;7.74;100.00;102878.28;5151989;27;20400;-75
2021/03/03 07:37:52;;;;;;;27.57;15.57;;;;;;;7.77;100.00;102883.44;5152428;27;20452;-75
2021/03/03 07:40:18;;;;;;;26.47;16.27;;;;;;;7.83;100.00;102885.06;5138423;27;20410;-79
2021/03/03 07:43:00;;;;;;;28.47;16.70;;;;;;;8.01;100.00;102889.91;5152907;27;20407;-79
2021/03/03 07:45:44;;;;;;;34.27;16.57;;;;;;;8.32;100.00;102890.13;5152834;27;20161;-79
2021/03/03 07:48:11;;;;;;;28.00;14.87;;;;;;;8.55;100.00;102887.00;5153250;27;20762;-78
2021/03/03 07:50:39;;;;;;;30.20;17.43;;;;;;;8.85;100.00;102890.66;5139876;27;20403;-79
2021/03/03 07:53:05;;;;;;;27.83;15.10;;;;;;;9.11;100.00;102876.88;5152430;27;20395;-79
2021/03/03 07:55:33;;;;;;;25.50;12.00;;;;;;;9.29;100.00;102872.88;5152618;27;20809;-78
2021/03/03 07:57:59;;;;;;;26.97;13.77;;;;;;;9.48;100.00;102871.50;5152619;27;20429;-76
2021/03/03 08:00:28;;;;;;;28.90;14.90;;;;;;;9.70;100.00;102869.13;5134652;27;20500;-77
2021/03/03 08:02:57;;;;;;;32.53;14.50;;;;;;;9.87;100.00;102868.63;5151831;27;20454;-77
2021/03/03 08:05:34;;;;;;;30.53;14.53;;;;;;;9.99;100.00;102879.63;5151971;27;20395;-77
2021/03/03 08:08:23;;;;;;;30.00;15.63;;;;;;;10.05;100.00;102875.09;5148261;27;20446;-76
2021/03/03 08:11:09;;;;;;;24.90;14.17;;;;;;;10.12;100.00;102879.25;5144579;27;20472;-77
2021/03/03 08:13:36;;;;;;;30.50;14.80;;;;;;;10.24;100.00;102876.28;5171012;27;20402;-75
2021/03/03 08:16:07;;;;;;;26.53;15.00;;;;;;;10.30;100.00;102875.25;5149030;27;20406;-76
2021/03/03 08:18:36;;;;;;;29.10;16.47;;;;;;;10.36;100.00;102877.69;5148490;27;20896;-81
2021/03/03 08:21:07;;;;;;;27.97;15.63;;;;;;;10.29;100.00;102877.03;5139933;27;20420;-82
2021/03/03 08:23:33;;;;;;;30.63;16.73;;;;;;;10.49;100.00;102873.75;5141755;27;20479;-79
2021/03/03 08:25:59;;;;;;;28.60;16.27;;;;;;;10.64;100.00;102875.88;5151706;27;20454;-84
2021/03/03 08:28:29;;;;;;;27.13;14.90;;;;;;;10.63;100.00;102874.16;5138283;27;20180;-78
2021/03/03 08:31:10;;;;;;;23.63;14.17;;;;;;;10.89;100.00;102878.59;5137846;27;20940;-80
2021/03/03 08:33:38;;;;;;;25.03;14.53;;;;;;;10.75;100.00;102863.25;5149949;27;20421;-80
2021/03/03 08:36:07;;;;;;;34.90;16.40;;;;;;;10.82;100.00;102877.06;5150425;27;20439;-81
2021/03/03 08:38:33;;;;;;;26.30;14.87;;;;;;;10.94;100.00;102884.53;5122810;27;20458;-79
2021/03/03 08:41:14;;;;;;;30.23;15.67;;;;;;;10.88;100.00;102889.13;5089109;27;20440;-84
2021/03/03 08:43:41;;;;;;;29.43;16.10;;;;;;;10.74;100.00;102892.25;5105959;28;20956;-80
2021/03/03 08:46:19;;;;;;;32.10;16.20;;;;;;;10.84;100.00;102896.28;5110652;28;20416;-81
2021/03/03 08:49:05;;;;;;;29.63;16.93;;;;;;;10.75;100.00;102904.47;5109937;28;20627;-83
2021/03/03 08:51:32;;;;;;;30.40;16.77;;;;;;;10.46;100.00;102906.25;5094249;28;20547;-77
2021/03/03 08:53:58;;;;;;;32.40;17.50;;;;;;;10.49;100.00;102900.03;5112263;28;20499;-79
2021/03/03 08:56:48;;;;;;;32.00;16.77;;;;;;;10.74;100.00;102895.72;5094887;28;20942;-80
2021/03/03 08:59:28;;;;;;;29.43;16.00;;;;;;;10.75;100.00;102899.22;5084246;28;20786;-80
2021/03/03 09:02:08;;;;;;;31.63;17.30;;;;;;;10.95;100.00;102909.06;5107577;28;20413;-79
2021/03/03 09:04:46;;;;;;;30.23;17.67;;;;;;;11.05;100.00;102902.59;5093917;28;20431;-81
2021/03/03 09:07:18;;;;;;;30.10;16.40;;;;;;;11.06;100.00;102912.19;5105752;28;21266;-80
2021/03/03 09:09:46;;;;;;;34.73;17.90;;;;;;;11.15;100.00;102903.13;5072334;28;20477;-82
2021/03/03 09:12:14;;;;;;;28.83;17.67;;;;;;;11.11;100.00;102910.28;5080296;28;20457;-80
2021/03/03 09:14:42;;;;;;;33.87;18.47;;;;;;;11.16;100.00;102910.13;5091847;28;20802;-78
2021/03/03 09:17:13;;;;;;;32.43;18.17;;;;;;;11.14;100.00;102909.31;5089255;28;20509;-82
2021/03/03 09:19:39;;;;;;;32.53;18.70;;;;;;;11.24;100.00;102914.19;5078813;28;20417;-77
2021/03/03 09:22:16;;;;;;;33.27;18.33;;;;;;;11.20;100.00;102919.63;5068987;28;20430;-77
2021/03/03 09:24:50;;;;;;;29.67;18.00;;;;;;;11.28;100.00;102913.19;5089990;28;20453;-77
2021/03/03 09:27:26;;;;;;;32.30;17.27;;;;;;;11.28;100.00;102907.94;5088406;28;20555;-77
2021/03/03 09:29:51;;;;;;;32.70;17.17;;;;;;;11.36;100.00;102926.09;5084034;28;20504;-77
2021/03/03 09:32:26;;;;;;;33.70;18.33;;;;;;;11.45;100.00;102930.16;5083867;28;20460;-78
2021/03/03 09:34:53;;;;;;;31.20;17.10;;;;;;;11.35;100.00;102930.50;5084719;28;20210;-75
2021/03/03 09:37:20;;;;;;;44.83;18.17;;;;;;;11.45;100.00;102927.53;5080813;28;20432;-75
2021/03/03 09:39:58;;;;;;;31.50;16.20;;;;;;;11.73;100.00;102930.06;5083291;28;20418;-75
2021/03/03 09:42:25;;;;;;;32.60;17.90;;;;;;;11.94;100.00;102924.03;5085665;28;20401;-75
2021/03/03 09:44:57;;;;;;;30.20;17.50;;;;;;;12.26;100.00;102921.94;5084228;28;20455;-75
2021/03/03 09:47:23;;;;;;;32.63;18.30;;;;;;;12.39;100.00;102929.31;5077935;28;20946;-77
2021/03/03 09:49:49;;;;;;;29.53;17.27;;;;;;;12.37;100.00;102925.88;5088330;28;20936;-76
2021/03/03 09:52:15;;;;;;;30.20;16.50;;;;;;;12.00;100.00;102910.59;5085228;28;20503;-73
2021/03/03 09:54:41;;;;;;;30.13;16.13;;;;;;;12.19;100.00;102923.94;5088362;28;20433;-74
2021/03/03 09:57:23;;;;;;;30.23;19.00;;;;;;;12.84;100.00;102917.81;5081830;28;21039;-78
2021/03/03 09:59:51;;;;;;;27.63;16.07;;;;;;;13.63;100.00;102918.03;5095135;28;20172;-74
2021/03/03 10:02:18;;;;;;;38.30;21.57;;;;;;;13.98;100.00;102916.41;5075988;28;20481;-79
2021/03/03 10:04:45;;;;;;;30.90;18.60;;;;;;;14.23;100.00;102913.50;5071937;28;20466;-75
2021/03/03 10:07:16;;;;;;;30.67;17.27;;;;;;;14.69;100.00;102913.03;5071876;28;20406;-75
2021/03/03 10:09:44;;;;;;;30.30;17.30;;;;;;;14.94;100.00;102907.38;5072390;28;20418;-78
2021/03/03 10:12:15;;;;;;;32.50;19.03;;;;;;;15.39;100.00;102910.41;5068972;28;20476;-74
2021/03/03 10:14:59;;;;;;;29.87;18.90;;;;;;;15.77;100.00;102906.59;5073347;28;20410;-77
2021/03/03 10:17:41;;;;;;;32.13;20.07;;;;;;;16.46;100.00;102907.22;5089728;28;20900;-78
2021/03/03 10:20:32;;;;;;;35.30;23.53;;;;;;;17.12;90.49;102904.28;5085861;28;20417;-72
2021/03/03 10:23:03;;;;;;;32.93;19.20;;;;;;;18.26;83.91;102899.84;5060936;28;20427;-74
2021/03/03 10:25:37;;;;;;;29.80;19.47;;;;;;;18.83;77.86;102889.03;5068235;28;20447;-74
2021/03/03 10:28:04;;;;;;;31.83;18.80;;;;;;;18.97;75.51;102890.75;5089237;28;20398;-81
2021/03/03 10:30:31;;;;;;;29.03;18.80;;;;;;;19.18;74.46;102890.22;5086493;28;20402;-81
2021/03/03 10:32:56;;;;;;;36.40;18.67;;;;;;;19.02;73.72;102891.28;5068935;28;20450;-76
2021/03/03 10:35:26;;;;;;;31.40;19.23;;;;;;;18.35;76.55;102887.75;5069779;28;20488;-77
2021/03/03 10:37:51;;;;;;;30.90;18.87;;;;;;;18.13;83.69;102890.94;5086368;28;20474;-79
2021/03/03 10:40:20;;;;;;;32.83;20.13;;;;;;;18.69;82.02;102897.06;5086937;28;20402;-77
2021/03/03 10:42:46;;;;;;;31.13;19.33;;;;;;;18.70;84.98;102892.59;5070080;28;20415;-78
2021/03/03 10:45:20;;;;;;;30.60;19.90;;;;;;;19.01;87.11;102888.72;5069944;28;20964;-80
2021/03/03 10:47:49;;;;;;;36.67;20.00;;;;;;;19.85;82.62;102866.84;5085792;28;20417;-77
2021/03/03 10:50:16;;;;;;;31.60;21.20;;;;;;;19.83;78.16;102871.44;5088248;28;20410;-78
2021/03/03 10:52:55;;;;;;;35.23;21.93;;;;;;;20.44;74.69;102867.00;5088915;28;20548;-74
2021/03/03 10:55:24;;;;;;;33.50;22.27;;;;;;;20.55;75.46;102866.19;5071080;28;20442;-78
2021/03/03 10:58:08;;;;;;;34.67;20.97;;;;;;;20.17;73.54;102860.00;5071925;28;20421;-76
2021/03/03 11:00:56;;;;;;;35.03;23.20;;;;;;;21.27;70.05;102857.06;5070946;28;20429;-77
2021/03/03 11:03:22;;;;;;;35.90;22.90;;;;;;;21.00;68.67;102859.16;5086887;28;20482;-78
2021/03/03 11:05:55;;;;;;;29.20;20.00;;;;;;;21.70;66.80;102847.47;5081939;28;20425;-80
2021/03/03 11:08:22;;;;;;;31.67;22.00;;;;;;;22.15;65.47;102850.94;5088334;28;20233;-81
2021/03/03 11:10:48;;;;;;;31.97;22.43;;;;;;;21.79;62.90;102852.91;5087594;28;20424;-74
2021/03/03 11:13:14;;;;;;;31.57;22.20;;;;;;;21.75;64.15;102846.09;5088923;28;20860;-70
2021/03/03 11:15:41;;;;;;;32.23;22.33;;;;;;;21.92;63.33;102841.22;5088927;28;20921;-71
2021/03/03 11:18:08;;;;;;;30.03;20.57;;;;;;;22.34;61.36;102843.06;5086797;28;20879;-73